메인 페이지
METAR-TAF:

METAR-TAF

공항 :

존 F. 케네디 국제공항

뉴욕 / JFK, 뉴욕, 미국

위도: 40-38-19N, 경도: 073-45-44W, 고도: 3m

현재 날씨관측

예보는 28분 전, 15:51시(UTC)에 발표되었습니다.
14kt, 순간 최대 풍속 19kt
온도 25°C
습도 44%
기압 1013 hPa
시정: 16.1km
고도 5500ft 상공 구름 조금
고도 14000ft 상공 구름 보통
고도 25000ft 상공 구름 보통

METAR: KJFK 301551Z 27014G19KT 10SM FEW055 SCT140 SCT250 25/12 A2991 RMK AO2 SLP127 T02500122

시각: 12:19 (16:19 UTC)

예보

예보는 1 시간 30분 전, 14:49시(UTC)에 발표되었습니다.
예보 대상 시간: 30일 15시부터 31일 18시까지 (UTC)
서북서10kt
시정: 10km
고도 4000ft 상공 구름 조금
고도 15000ft 상공 구름 보통
고도 25000ft 상공 구름 많음
30일 1900시부터 (UTC)
남서12kt
시정: 10km
고도 10000ft 상공 구름 보통
31일 0200시부터 (UTC)
북서12kt, 순간 최대 풍속 20kt
시정: 10km
고도 25000ft 상공 구름 조금
31일 0600시부터 (UTC)
북북서14kt, 순간 최대 풍속 18kt
시정: 10km
고도 25000ft 상공 구름 조금

TAF: KJFK 301449Z 3015/3118 30010KT P6SM FEW040 SCT150 BKN250 FM301900 22012KT P6SM SCT100 FM310200 32012G20KT P6SM FEW250 FM310600 34014G18KT P6SM FEW250

4,000개 이상의 공항 관측 자료 및 예보 (METAR 및 TAF 보고).

지도상에서 검색 가능한 기상관측소가 노란 점과 빨간 점으로 표시되어 있습니다.

기상관측소 명을 보려면 표시 위로 마우스를 이동하세요.

날씨 관측과 예보를 보려면 클릭하세요.

지도 변경 : 확대하려면 엑스 표시가 있는 녹색 버튼, 축소하려면 빼기 표시가 있는 녹색 버튼, 다음 페이지의 지도를 보려면 녹색 화살표를 클릭하세요.


METAR-TAF: